Kezdőlap
METAR-TAF:

METAR-TAF

Repülőterek :

Wellington, Új-Zéland

földrajzi szélesség: 41-20S, földrajzi hosszúság: 174-48E, magasság: 12 m

Jelenlegi meteorológiai megfigyelések

A jelentés 34 perccel ezelõtt készült, 18:30 UTC
Északi szél 10 kt
Hőmérséklet 11°C
Páratartalom 87%
Légköri nyomás 1016 hPa
Látótávolság 10 km, vagy több

METAR: NZWN 191830Z AUTO 01010KT 9999 OVC018/// 11/09 Q1016 NOSIG

Idő: 07:04 (19:04 UTC)

Előrejelzés

A jelentés 2 órával és 1 perccel ezelõtt készült, 17:03 UTC
Az előrejelzés 19-én 18 óra UTC és 20-én 18 óra UTC között érvényes
Észak-északkeleti szél 10 kt
Látótávolság 10 km, vagy több
Szórványos felhőzet 2000 lábon
19-én 23 óra UTC és 20-én 01 óra UTC között fokozatosan kialakuló
Északi szél 15 kt széllökések: 25 kt

TAF: NZWN 191703Z 1918/2018 02010KT 9999 SCT020 BECMG 1923/2001 35015G25KT

Meteorológiai megfigyelések és előrejelzések több, mint 4000 repülőtéren (METAR és TAF jelentéseket).

A térképen piros és sárga pontok jelzik az elérhető meteorológiai állomásokat.

Mozgassa az egeret a pont fölött, hogy megjelenjen az állomás neve.

Azután kattintson az időjárási megfigyelések és előrejelzések megtekintéséhez.

A térkép megváltoztatása: kattintson a fekete keresztel jelölt zöld gombra ráközelítéshez, a vonallal jelölt zöld gombra távolításhoz, vagy a zöld nyilakra a szomszédos térképek eléréséhez.


METAR-TAF: